Time;durP1;ratioP1;P1;durP2;ratioP2;P2;SDS_P1;SDS_P2;PMS_P1;PMS_P2;Temp;Humidity;BMP_temperature;BMP_pressure;BME280_temperature;BME280_humidity;BME280_pressure;Samples;Min_cycle;Max_cycle;Signal;HPM_P1;HPM_P2
2022/11/06 00:00:17;;;;;;;1.73;1.00;;;8.20;99.90;;;;;;21026380;28;20209;-71
2022/11/06 00:10:19;;;;;;;2.13;1.40;;;;;;;;;;21058442;28;20572;-71
2022/11/06 00:20:22;;;;;;;2.93;1.30;;;;;;;;;;21020587;28;20224;-71
2022/11/06 00:30:24;;;;;;;2.70;1.40;;;8.10;99.90;;;;;;20946562;28;20233;-71
2022/11/06 00:40:26;;;;;;;1.80;1.30;;;;;;;;;;20923592;28;20266;-71
2022/11/06 00:50:28;;;;;;;2.93;1.53;;;;;;;;;;20931938;28;20647;-71
2022/11/06 01:00:30;;;;;;;2.77;1.67;;;;;;;;;;20939050;28;20664;-71
2022/11/06 01:10:31;;;;;;;2.60;1.73;;;;;;;;;;20921312;28;20216;-71
2022/11/06 01:20:33;;;;;;;2.33;1.70;;;;;;;;;;20854748;23;20217;-70
2022/11/06 01:30:36;;;;;;;3.43;1.63;;;;;;;;;;20854732;28;20256;-70
2022/11/06 01:40:42;;;;;;;2.17;1.40;;;7.70;99.90;;;;;;20854290;28;20275;-70
2022/11/06 01:50:47;;;;;;;2.10;1.37;;;7.50;99.90;;;;;;20853658;28;20221;-69
2022/11/06 02:00:49;;;;;;;2.73;1.73;;;7.30;99.90;;;;;;20869346;28;20236;-69
2022/11/06 02:10:52;;;;;;;3.00;1.73;;;;;;;;;;20869302;28;20589;-70
2022/11/06 02:21:09;;;;;;;2.87;1.87;;;7.40;99.90;;;;;;20871603;28;20287;-69
2022/11/06 02:31:13;;;;;;;4.57;2.17;;;;;;;;;;20868228;28;20221;-70
2022/11/06 02:41:34;;;;;;;2.37;1.50;;;7.30;99.90;;;;;;20884071;28;20202;-70
2022/11/06 02:51:39;;;;;;;2.50;1.57;;;;;;;;;;20873738;28;20243;-69
2022/11/06 03:01:41;;;;;;;3.63;2.03;;;;;;;;;;20933670;28;20636;-69
2022/11/06 03:11:43;;;;;;;3.67;1.80;;;;;;;;;;20925913;28;20217;-70
2022/11/06 03:21:51;;;;;;;3.30;1.97;;;;;;;;;;20939459;28;20232;-70
2022/11/06 03:31:58;;;;;;;2.43;1.53;;;;;;;;;;20945732;28;20723;-71
2022/11/06 03:42:03;;;;;;;3.23;2.17;;;;;;;;;;20945896;28;20275;-70
2022/11/06 03:52:08;;;;;;;7.07;2.10;;;;;;;;;;20944775;28;20286;-70
2022/11/06 04:02:11;;;;;;;2.50;1.80;;;;;;;;;;20960223;28;20197;-70
2022/11/06 04:22:58;;;;;;;3.00;1.50;;;;;;;;;;20977614;28;20213;-70
2022/11/06 04:33:07;;;;;;;2.67;1.63;;;;;;;;;;20958061;28;20229;-70
2022/11/06 04:43:27;;;;;;;4.33;2.33;;;;;;;;;;20984819;28;20209;-70
2022/11/06 04:53:30;;;;;;;2.67;1.57;;;;;;;;;;20956298;28;20420;-70
2022/11/06 05:03:31;;;;;;;2.00;1.37;;;;;;;;;;20939640;28;20209;-70
2022/11/06 05:13:34;;;;;;;4.53;1.50;;;;;;;;;;20954012;28;20241;-72
2022/11/06 05:23:37;;;;;;;2.27;1.40;;;;;;;;;;20904303;28;20272;-70
2022/11/06 05:33:39;;;;;;;2.27;1.60;;;;;;;;;;20890751;28;20221;-72
2022/11/06 05:43:41;;;;;;;3.17;2.03;;;;;;;;;;20936278;28;20569;-69
2022/11/06 05:53:42;;;;;;;3.20;1.93;;;;;;;;;;20934643;28;20243;-71
2022/11/06 06:03:44;;;;;;;1.80;1.33;;;;;;;;;;20934858;28;20275;-71
2022/11/06 06:13:47;;;;;;;2.97;1.80;;;;;;;;;;20934260;28;20224;-71
2022/11/06 06:23:49;;;;;;;2.47;1.77;;;;;;;;;;20934189;28;20637;-71
2022/11/06 06:33:50;;;;;;;1.60;1.17;;;;;;;;;;20933417;28;20213;-71
2022/11/06 06:43:52;;;;;;;2.63;1.33;;;;;;;;;;20933350;28;20236;-70
2022/11/06 06:53:54;;;;;;;1.93;1.10;;;;;;;;;;20932966;28;20225;-71
2022/11/06 07:03:56;;;;;;;1.80;1.00;;;;;;;;;;20911880;28;20251;-71
2022/11/06 07:13:59;;;;;;;4.20;1.53;;;;;;;;;;20887550;22;20284;-66
2022/11/06 07:24:01;;;;;;;1.67;0.90;;;;;;;;;;20893613;28;20248;-67
2022/11/06 07:34:03;;;;;;;1.97;1.10;;;;;;;;;;20982235;28;20278;-67
2022/11/06 07:44:06;;;;;;;2.10;0.93;;;;;;;;;;20936832;28;20247;-67
2022/11/06 07:54:09;;;;;;;1.10;0.90;;;;;;;;;;20977667;28;20290;-68
2022/11/06 08:04:11;;;;;;;2.20;1.20;;;;;;;;;;20961002;28;20205;-67
2022/11/06 08:14:13;;;;;;;1.67;1.27;;;;;;;;;;20959928;28;20220;-67
2022/11/06 08:24:15;;;;;;;2.73;1.40;;;;;;;;;;20958581;28;20302;-70
2022/11/06 08:34:17;;;;;;;2.93;1.40;;;;;;;;;;20974841;28;20217;-68
2022/11/06 08:44:19;;;;;;;2.07;1.10;;;;;;;;;;20957671;28;20240;-69
2022/11/06 08:54:21;;;;;;;5.40;1.07;;;;;;;;;;20957050;28;20758;-67
2022/11/06 09:04:23;;;;;;;3.40;1.30;;;;;;;;;;20956125;28;20933;-71
2022/11/06 09:14:25;;;;;;;2.40;1.30;;;;;;;;;;20955439;28;20225;-67
2022/11/06 09:24:28;;;;;;;2.57;1.40;;;4.90;99.90;;;;;;20937765;28;20280;-67
2022/11/06 09:34:30;;;;;;;1.67;1.20;;;;;;;;;;20881231;28;20230;-67
2022/11/06 09:45:02;;;;;;;2.57;0.97;;;8.40;99.90;;;;;;20879617;28;20244;-69
2022/11/06 09:55:15;;;;;;;1.40;0.90;;;8.70;99.90;;;;;;20941219;28;20221;-68
2022/11/06 10:05:27;;;;;;;2.40;1.03;;;;;;;;;;20895573;28;20217;-68
2022/11/06 10:15:38;;;;;;;1.83;1.03;;;;;;;;;;20884825;28;20218;-68
2022/11/06 10:25:59;;;;;;;1.90;1.30;;;8.60;99.90;;;;;;20884435;28;20201;-68
2022/11/06 10:36:30;;;;;;;2.00;1.30;;;8.60;99.90;;;;;;20884367;28;20236;-68
2022/11/06 10:46:37;;;;;;;2.53;1.70;;;;;;;;;;20884583;28;20237;-68
2022/11/06 10:56:43;;;;;;;2.40;1.50;;;;;;;;;;20899936;28;20778;-68
2022/11/06 11:06:45;;;;;;;2.13;1.43;;;;;;;;;;20883647;28;20213;-68
2022/11/06 11:16:47;;;;;;;1.70;1.10;;;;;;;;;;20898129;28;20214;-68
2022/11/06 11:26:50;;;;;;;2.30;1.60;;;;;;;;;;20880669;28;20624;-68
2022/11/06 11:37:01;;;;;;;2.37;1.57;;;9.80;99.90;;;;;;20880566;28;20574;-68
2022/11/06 11:47:20;;;;;;;3.13;1.53;;;9.40;99.90;;;;;;20895950;28;20257;-68
2022/11/06 11:57:25;;;;;;;4.03;1.63;;;9.20;99.90;;;;;;20878640;28;20240;-68
2022/11/06 12:07:31;;;;;;;2.20;1.23;;;9.20;99.90;;;;;;20844835;28;20284;-68
2022/11/06 12:17:34;;;;;;;2.37;1.40;;;;;;;;;;20876522;28;20620;-68
2022/11/06 12:27:40;;;;;;;3.07;1.10;;;;;;;;;;20884866;28;20688;-69
2022/11/06 12:37:42;;;;;;;1.60;1.00;;;;;;;;;;20957269;28;20243;-68
2022/11/06 12:47:49;;;;;;;1.40;0.87;;;;;;;;;;20948827;28;20271;-69
2022/11/06 12:58:20;;;;;;;1.07;0.70;;;9.20;99.90;;;;;;20931583;28;20275;-69
2022/11/06 13:08:22;;;;;;;2.10;1.00;;;;;;;;;;20960858;28;20634;-68
2022/11/06 13:18:26;;;;;;;2.10;1.10;;;;;;;;;;20914833;28;20229;-69
2022/11/06 13:28:45;;;;;;;1.27;0.90;;;9.20;99.90;;;;;;20986830;28;20305;-69
2022/11/06 13:38:53;;;;;;;3.37;1.57;;;9.10;99.90;;;;;;20953994;28;20201;-68
2022/11/06 13:49:01;;;;;;;1.90;1.10;;;9.20;99.90;;;;;;20887465;28;20226;-68
2022/11/06 13:59:14;;;;;;;1.77;0.80;;;;;;;;;;20844620;28;20248;-69
2022/11/06 14:09:22;;;;;;;1.63;0.70;;;9.10;99.90;;;;;;20979355;22;20290;-76
2022/11/06 14:19:26;;;;;;;2.27;0.97;;;;;;;;;;20978327;28;20224;-77
2022/11/06 14:29:28;;;;;;;1.97;0.83;;;;;;;;;;20925465;28;20228;-76
2022/11/06 14:39:48;;;;;;;2.03;0.77;;;;;;;;;;21000390;28;20769;-75
2022/11/06 14:49:52;;;;;;;3.97;1.50;;;;;;;;;;20975005;28;20225;-75
2022/11/06 14:59:56;;;;;;;1.80;0.87;;;9.10;99.90;;;;;;20924623;28;20546;-75
2022/11/06 15:09:58;;;;;;;1.93;1.10;;;;;;;;;;20956890;28;20267;-75
2022/11/06 15:20:06;;;;;;;1.13;0.77;;;;;;;;;;20976300;28;20583;-77
2022/11/06 15:30:13;;;;;;;1.63;1.00;;;;;;;;;;20949489;28;20271;-76
2022/11/06 15:40:26;;;;;;;5.60;3.47;;;;;;;;;;20992010;28;20209;-75
2022/11/06 15:50:29;;;;;;;2.03;1.10;;;;;;;;;;20992845;28;20319;-78
2022/11/06 16:00:32;;;;;;;1.87;1.03;;;;;;;;;;20992311;28;20711;-75
2022/11/06 16:10:35;;;;;;;1.53;1.03;;;;;;;;;;20985228;28;20213;-75
2022/11/06 16:20:37;;;;;;;1.53;0.90;;;;;;;;;;20983842;28;20247;-76
2022/11/06 16:30:39;;;;;;;1.90;1.10;;;;;;;;;;20973517;28;20257;-76
2022/11/06 16:40:44;;;;;;;3.57;1.10;;;;;;;;;;21001067;28;20633;-76
2022/11/06 16:50:54;;;;;;;2.00;1.27;;;8.90;99.90;;;;;;21005928;28;20251;-76
2022/11/06 17:00:59;;;;;;;1.80;1.00;;;8.80;99.90;;;;;;20981385;28;20201;-76
2022/11/06 17:11:13;;;;;;;1.53;1.00;;;;;;;;;;20980874;28;20579;-75
2022/11/06 17:21:15;;;;;;;9.63;5.00;;;;;;;;;;20979731;28;20687;-76
2022/11/06 17:31:18;;;;;;;13.13;5.00;;;9.60;99.90;;;;;;20982116;28;20561;-74
2022/11/06 17:41:30;;;;;;;2.83;1.70;;;;;;;;;;20960540;28;20255;-76
2022/11/06 18:01:58;;;;;;;2.17;1.37;;;;;;;;;;20978145;28;20217;-75
2022/11/06 18:12:00;;;;;;;1.80;0.97;;;;;;;;;;20960464;28;20251;-75
2022/11/06 18:22:03;;;;;;;1.37;0.80;;;;;;;;;;20985026;28;20285;-76
2022/11/06 18:32:06;;;;;;;1.33;0.83;;;;;;;;;;21025600;28;20323;-75
2022/11/06 18:42:08;;;;;;;4.00;1.10;;;;;;;;;;21042205;28;20212;-76
2022/11/06 18:52:10;;;;;;;2.60;1.20;;;;;;;;;;21061127;28;20236;-76
2022/11/06 19:02:12;;;;;;;2.10;1.20;;;;;;;;;;21035127;28;20217;-76
2022/11/06 19:12:14;;;;;;;1.50;1.00;;;;;;;;;;21028874;28;20489;-76
2022/11/06 19:22:15;;;;;;;1.30;0.90;;;;;;;;;;21041077;28;20205;-76
2022/11/06 19:32:17;;;;;;;1.37;0.80;;;;;;;;;;21017458;28;20267;-76
2022/11/06 19:42:19;;;;;;;1.00;0.63;;;;;;;;;;20970527;28;20225;-76
2022/11/06 19:52:21;;;;;;;2.07;1.07;;;;;;;;;;20971666;28;20527;-76
2022/11/06 20:02:22;;;;;;;2.07;1.03;;;;;;;;;;20954525;28;20240;-76
2022/11/06 20:12:25;;;;;;;1.97;1.03;;;;;;;;;;20987354;22;20236;-68
2022/11/06 20:22:27;;;;;;;0.90;0.70;;;;;;;;;;20955908;28;20221;-68
2022/11/06 20:32:29;;;;;;;2.07;0.97;;;;;;;;;;20939241;28;20630;-68
2022/11/06 20:42:31;;;;;;;2.23;0.90;;;;;;;;;;20952268;28;20201;-68
2022/11/06 20:52:33;;;;;;;1.57;0.97;;;;;;;;;;20948940;28;20267;-68
2022/11/06 21:02:38;;;;;;;2.50;1.30;;;8.70;99.90;;;;;;20931127;28;20267;-68
2022/11/06 21:12:40;;;;;;;1.33;0.90;;;;;;;;;;20931569;28;20290;-68
2022/11/06 21:22:42;;;;;;;2.23;1.30;;;;;;;;;;20949846;28;20221;-68
2022/11/06 21:32:44;;;;;;;1.87;1.23;;;;;;;;;;20934990;28;20270;-68
2022/11/06 21:42:46;;;;;;;1.57;1.00;;;;;;;;;;20951555;28;20562;-68
2022/11/06 22:03:09;;;;;;;1.50;0.90;;;;;;;;;;20951586;28;20209;-68
2022/11/06 22:13:11;;;;;;;2.10;1.20;;;;;;;;;;20951115;28;20233;-69
2022/11/06 22:23:12;;;;;;;1.23;0.70;;;;;;;;;;20918524;28;20214;-68
2022/11/06 22:33:14;;;;;;;1.70;0.83;;;;;;;;;;20919771;28;20224;-68
2022/11/06 22:43:17;;;;;;;0.80;0.50;;;;;;;;;;20978171;28;20551;-68
2022/11/06 22:53:19;;;;;;;0.87;0.57;;;;;;;;;;20966695;28;20317;-68
2022/11/06 23:03:21;;;;;;;1.80;0.77;;;9.00;99.90;;;;;;20949808;28;20236;-68
2022/11/06 23:13:23;;;;;;;1.27;0.50;;;;;;;;;;20931312;28;20278;-68
2022/11/06 23:23:25;;;;;;;1.93;1.00;;;;;;;;;;20931553;28;20217;-68
2022/11/06 23:33:27;;;;;;;1.90;0.60;;;;;;;;;;20947648;28;20237;-68
2022/11/06 23:43:29;;;;;;;0.77;0.50;;;;;;;;;;20929887;28;20213;-68
2022/11/06 23:53:32;;;;;;;0.73;0.40;;;;;;;;;;20945953;28;20229;-69
